createdAt,value
2023-03-19T11:11:04.595Z,67.50
2023-03-19T13:49:31.539Z,70.70
2023-03-19T13:54:09.978Z,70.70
2023-03-19T15:56:29.518Z,70.30
2023-03-19T16:00:42.458Z,70.30
2023-03-19T20:48:45.737Z,72.80
2023-03-19T21:10:29.650Z,77.00
2023-03-19T21:14:39.310Z,77.40
2023-03-19T21:32:13.925Z,78.70
2023-03-19T21:36:17.280Z,78.80
2023-03-19T21:40:25.995Z,79.00
2023-03-19T21:48:57.396Z,79.20
2023-03-19T21:53:01.676Z,79.20
2023-03-19T21:57:05.881Z,79.70
2023-03-19T22:01:19.077Z,79.80
2023-03-19T22:14:23.216Z,80.40
2023-03-19T22:22:51.689Z,80.50
2023-03-19T22:26:57.590Z,80.60
2023-03-19T22:31:01.898Z,80.70
2023-03-19T22:35:05.219Z,80.60
2023-03-19T22:39:08.888Z,80.70
2023-03-19T22:43:31.816Z,80.70
2023-03-19T22:47:36.532Z,80.60
2023-03-19T22:51:39.398Z,80.70
2023-03-19T22:55:42.443Z,80.60
2023-03-19T22:59:47.580Z,80.60
2023-03-19T23:03:51.077Z,80.60
2023-03-19T23:07:55.412Z,80.60
2023-03-19T23:11:59.743Z,80.50
2023-03-19T23:16:03.177Z,80.60
2023-03-19T23:20:17.603Z,80.80
2023-03-19T23:24:21.138Z,81.10
2023-03-19T23:28:26.458Z,81.20
2023-03-19T23:32:29.210Z,81.30
2023-03-19T23:36:33.140Z,81.50
2023-03-19T23:40:37.009Z,81.60
2023-03-19T23:44:41.146Z,81.50
2023-03-19T23:48:44.833Z,81.30
2023-03-19T23:52:51.592Z,81.00
2023-03-19T23:56:55.231Z,80.80
